sensor_id;sensor_type;location;lat;lon;timestamp;P1;durP1;ratioP1;P2;durP2;ratioP2
26820;SDS011;37186;51.394;5.454;2023-06-22T00:01:37;29.33;;;28.33;;
26820;SDS011;37186;51.394;5.454;2023-06-22T00:04:37;29.38;;;28.38;;
26820;SDS011;37186;51.394;5.454;2023-06-22T00:07:38;31.30;;;30.23;;
26820;SDS011;37186;51.394;5.454;2023-06-22T00:10:38;30.95;;;29.95;;
26820;SDS011;37186;51.394;5.454;2023-06-22T00:13:39;32.58;;;31.48;;
26820;SDS011;37186;51.394;5.454;2023-06-22T00:16:40;33.40;;;32.30;;
26820;SDS011;37186;51.394;5.454;2023-06-22T00:19:42;34.58;;;33.38;;
26820;SDS011;37186;51.394;5.454;2023-06-22T00:22:43;33.05;;;31.95;;
26820;SDS011;37186;51.394;5.454;2023-06-22T00:25:44;34.85;;;33.65;;
26820;SDS011;37186;51.394;5.454;2023-06-22T00:28:45;33.30;;;32.20;;
26820;SDS011;37186;51.394;5.454;2023-06-22T00:31:45;35.33;;;34.13;;
26820;SDS011;37186;51.394;5.454;2023-06-22T00:34:46;35.42;;;34.22;;
26820;SDS011;37186;51.394;5.454;2023-06-22T00:37:46;34.17;;;33.00;;
26820;SDS011;37186;51.394;5.454;2023-06-22T00:40:47;37.20;;;35.90;;
26820;SDS011;37186;51.394;5.454;2023-06-22T00:43:47;36.45;;;35.15;;
26820;SDS011;37186;51.394;5.454;2023-06-22T00:46:48;36.08;;;34.83;;
26820;SDS011;37186;51.394;5.454;2023-06-22T00:49:49;36.40;;;35.15;;
26820;SDS011;37186;51.394;5.454;2023-06-22T00:52:56;36.67;;;35.38;;
26820;SDS011;37186;51.394;5.454;2023-06-22T00:55:58;40.08;;;38.67;;
26820;SDS011;37186;51.394;5.454;2023-06-22T00:58:59;37.88;;;36.58;;
26820;SDS011;37186;51.394;5.454;2023-06-22T01:02:03;38.58;;;37.17;;
26820;SDS011;37186;51.394;5.454;2023-06-22T01:05:04;35.95;;;34.67;;
26820;SDS011;37186;51.394;5.454;2023-06-22T01:11:24;32.78;;;31.67;;
26820;SDS011;37186;51.394;5.454;2023-06-22T01:17:42;30.02;;;29.00;;
26820;SDS011;37186;51.394;5.454;2023-06-22T01:20:45;27.20;;;26.30;;
26820;SDS011;37186;51.394;5.454;2023-06-22T01:31:19;15.68;;;15.18;;
26820;SDS011;37186;51.394;5.454;2023-06-22T01:34:22;13.95;;;13.55;;
26820;SDS011;37186;51.394;5.454;2023-06-22T01:37:24;12.88;;;12.48;;
26820;SDS011;37186;51.394;5.454;2023-06-22T01:40:26;12.65;;;12.25;;
26820;SDS011;37186;51.394;5.454;2023-06-22T01:43:27;11.45;;;11.15;;
26820;SDS011;37186;51.394;5.454;2023-06-22T01:46:29;12.35;;;11.95;;
26820;SDS011;37186;51.394;5.454;2023-06-22T01:49:29;12.48;;;12.07;;
26820;SDS011;37186;51.394;5.454;2023-06-22T01:52:30;12.10;;;11.70;;
26820;SDS011;37186;51.394;5.454;2023-06-22T01:55:33;11.68;;;11.38;;
26820;SDS011;37186;51.394;5.454;2023-06-22T01:58:34;11.65;;;11.35;;
26820;SDS011;37186;51.394;5.454;2023-06-22T02:01:47;12.27;;;11.88;;
26820;SDS011;37186;51.394;5.454;2023-06-22T02:05:11;11.93;;;11.52;;
26820;SDS011;37186;51.394;5.454;2023-06-22T02:08:22;12.20;;;11.80;;
26820;SDS011;37186;51.394;5.454;2023-06-22T02:11:28;11.73;;;11.43;;
26820;SDS011;37186;51.394;5.454;2023-06-22T02:14:30;11.93;;;11.55;;
26820;SDS011;37186;51.394;5.454;2023-06-22T02:17:32;11.55;;;11.25;;
26820;SDS011;37186;51.394;5.454;2023-06-22T02:20:36;11.63;;;11.32;;
26820;SDS011;37186;51.394;5.454;2023-06-22T02:23:37;11.57;;;11.27;;
26820;SDS011;37186;51.394;5.454;2023-06-22T02:26:38;10.63;;;10.32;;
26820;SDS011;37186;51.394;5.454;2023-06-22T02:29:42;10.63;;;10.32;;
26820;SDS011;37186;51.394;5.454;2023-06-22T02:32:42;10.60;;;10.30;;
26820;SDS011;37186;51.394;5.454;2023-06-22T02:35:43;10.82;;;10.52;;
26820;SDS011;37186;51.394;5.454;2023-06-22T02:38:47;11.13;;;10.82;;
26820;SDS011;37186;51.394;5.454;2023-06-22T02:41:51;11.70;;;11.40;;
26820;SDS011;37186;51.394;5.454;2023-06-22T02:44:53;10.98;;;10.68;;
26820;SDS011;37186;51.394;5.454;2023-06-22T02:47:53;11.35;;;11.05;;
26820;SDS011;37186;51.394;5.454;2023-06-22T02:50:54;11.75;;;11.43;;
26820;SDS011;37186;51.394;5.454;2023-06-22T02:53:55;11.93;;;11.55;;
26820;SDS011;37186;51.394;5.454;2023-06-22T02:56:57;11.80;;;11.48;;
26820;SDS011;37186;51.394;5.454;2023-06-22T02:59:57;11.30;;;11.00;;
26820;SDS011;37186;51.394;5.454;2023-06-22T03:02:59;10.35;;;10.05;;
26820;SDS011;37186;51.394;5.454;2023-06-22T03:05:59;9.75;;;9.45;;
26820;SDS011;37186;51.394;5.454;2023-06-22T03:09:01;9.45;;;9.15;;
26820;SDS011;37186;51.394;5.454;2023-06-22T03:12:04;10.35;;;10.05;;
26820;SDS011;37186;51.394;5.454;2023-06-22T03:15:08;8.90;;;8.63;;
26820;SDS011;37186;51.394;5.454;2023-06-22T03:18:10;10.55;;;10.25;;
26820;SDS011;37186;51.394;5.454;2023-06-22T03:21:11;9.52;;;9.23;;
26820;SDS011;37186;51.394;5.454;2023-06-22T03:24:11;9.48;;;9.18;;
26820;SDS011;37186;51.394;5.454;2023-06-22T03:27:12;9.77;;;9.48;;
26820;SDS011;37186;51.394;5.454;2023-06-22T03:30:13;9.40;;;9.10;;
26820;SDS011;37186;51.394;5.454;2023-06-22T03:33:14;11.95;;;11.57;;
26820;SDS011;37186;51.394;5.454;2023-06-22T03:36:15;11.43;;;11.13;;
26820;SDS011;37186;51.394;5.454;2023-06-22T03:39:18;11.43;;;11.13;;
26820;SDS011;37186;51.394;5.454;2023-06-22T03:42:20;11.60;;;11.30;;
26820;SDS011;37186;51.394;5.454;2023-06-22T03:45:21;11.45;;;11.15;;
26820;SDS011;37186;51.394;5.454;2023-06-22T03:48:21;11.52;;;11.20;;
26820;SDS011;37186;51.394;5.454;2023-06-22T03:51:22;11.52;;;11.20;;
26820;SDS011;37186;51.394;5.454;2023-06-22T03:54:22;10.93;;;10.63;;
26820;SDS011;37186;51.394;5.454;2023-06-22T03:57:23;10.35;;;10.05;;
26820;SDS011;37186;51.394;5.454;2023-06-22T04:00:23;11.30;;;11.00;;
26820;SDS011;37186;51.394;5.454;2023-06-22T04:03:24;11.23;;;10.93;;
26820;SDS011;37186;51.394;5.454;2023-06-22T04:06:25;11.40;;;11.10;;
26820;SDS011;37186;51.394;5.454;2023-06-22T04:09:26;11.45;;;11.13;;
26820;SDS011;37186;51.394;5.454;2023-06-22T04:12:26;12.65;;;12.25;;
26820;SDS011;37186;51.394;5.454;2023-06-22T04:15:27;12.57;;;12.18;;
26820;SDS011;37186;51.394;5.454;2023-06-22T04:18:27;13.27;;;12.88;;
26820;SDS011;37186;51.394;5.454;2023-06-22T04:21:28;12.65;;;12.25;;
26820;SDS011;37186;51.394;5.454;2023-06-22T04:24:29;13.10;;;12.70;;
26820;SDS011;37186;51.394;5.454;2023-06-22T04:27:29;13.75;;;13.35;;
26820;SDS011;37186;51.394;5.454;2023-06-22T04:30:32;13.27;;;12.88;;
26820;SDS011;37186;51.394;5.454;2023-06-22T04:33:32;12.63;;;12.23;;
26820;SDS011;37186;51.394;5.454;2023-06-22T04:36:34;12.48;;;12.07;;
26820;SDS011;37186;51.394;5.454;2023-06-22T04:39:45;11.88;;;11.50;;
26820;SDS011;37186;51.394;5.454;2023-06-22T04:42:45;12.43;;;12.02;;
26820;SDS011;37186;51.394;5.454;2023-06-22T04:45:52;14.15;;;13.75;;
26820;SDS011;37186;51.394;5.454;2023-06-22T04:48:52;13.95;;;13.55;;
26820;SDS011;37186;51.394;5.454;2023-06-22T04:51:53;13.50;;;13.10;;
26820;SDS011;37186;51.394;5.454;2023-06-22T04:54:55;14.20;;;13.80;;
26820;SDS011;37186;51.394;5.454;2023-06-22T04:57:57;14.40;;;14.00;;
26820;SDS011;37186;51.394;5.454;2023-06-22T05:01:04;15.32;;;14.82;;
26820;SDS011;37186;51.394;5.454;2023-06-22T05:04:05;14.82;;;14.35;;
26820;SDS011;37186;51.394;5.454;2023-06-22T05:07:06;17.98;;;17.38;;
26820;SDS011;37186;51.394;5.454;2023-06-22T05:10:07;16.90;;;16.40;;
26820;SDS011;37186;51.394;5.454;2023-06-22T05:13:08;17.10;;;16.60;;
26820;SDS011;37186;51.394;5.454;2023-06-22T05:16:08;16.40;;;15.90;;
26820;SDS011;37186;51.394;5.454;2023-06-22T05:19:09;17.55;;;17.00;;
26820;SDS011;37186;51.394;5.454;2023-06-22T05:22:10;16.77;;;16.27;;
26820;SDS011;37186;51.394;5.454;2023-06-22T05:25:12;16.67;;;16.17;;
26820;SDS011;37186;51.394;5.454;2023-06-22T05:28:13;19.20;;;18.60;;
26820;SDS011;37186;51.394;5.454;2023-06-22T05:31:14;17.88;;;17.27;;
26820;SDS011;37186;51.394;5.454;2023-06-22T05:34:16;17.27;;;16.77;;
26820;SDS011;37186;51.394;5.454;2023-06-22T05:37:16;20.63;;;19.92;;
26820;SDS011;37186;51.394;5.454;2023-06-22T05:40:17;18.05;;;17.45;;
26820;SDS011;37186;51.394;5.454;2023-06-22T05:43:18;20.23;;;19.58;;
26820;SDS011;37186;51.394;5.454;2023-06-22T05:46:18;20.45;;;19.75;;
26820;SDS011;37186;51.394;5.454;2023-06-22T05:49:19;20.13;;;19.48;;
26820;SDS011;37186;51.394;5.454;2023-06-22T05:52:22;23.50;;;22.70;;
26820;SDS011;37186;51.394;5.454;2023-06-22T05:55:22;23.75;;;22.95;;
26820;SDS011;37186;51.394;5.454;2023-06-22T05:58:23;25.52;;;24.67;;
26820;SDS011;37186;51.394;5.454;2023-06-22T06:01:24;25.13;;;24.27;;
26820;SDS011;37186;51.394;5.454;2023-06-22T06:04:25;27.52;;;26.58;;
26820;SDS011;37186;51.394;5.454;2023-06-22T06:07:26;26.83;;;25.92;;
26820;SDS011;37186;51.394;5.454;2023-06-22T06:10:27;22.88;;;22.13;;
26820;SDS011;37186;51.394;5.454;2023-06-22T06:13:29;27.38;;;26.45;;
26820;SDS011;37186;51.394;5.454;2023-06-22T06:16:30;27.27;;;26.38;;
26820;SDS011;37186;51.394;5.454;2023-06-22T06:19:30;26.05;;;25.17;;
26820;SDS011;37186;51.394;5.454;2023-06-22T06:22:31;26.17;;;25.27;;
26820;SDS011;37186;51.394;5.454;2023-06-22T06:25:32;24.70;;;23.90;;
26820;SDS011;37186;51.394;5.454;2023-06-22T06:28:32;25.23;;;24.38;;
26820;SDS011;37186;51.394;5.454;2023-06-22T06:31:33;25.58;;;24.70;;
26820;SDS011;37186;51.394;5.454;2023-06-22T06:34:34;26.58;;;25.67;;
26820;SDS011;37186;51.394;5.454;2023-06-22T06:37:38;26.38;;;25.48;;
26820;SDS011;37186;51.394;5.454;2023-06-22T06:40:40;25.60;;;24.73;;
26820;SDS011;37186;51.394;5.454;2023-06-22T06:43:41;25.98;;;25.08;;
26820;SDS011;37186;51.394;5.454;2023-06-22T06:46:45;27.65;;;26.70;;
26820;SDS011;37186;51.394;5.454;2023-06-22T06:49:45;26.58;;;25.67;;
26820;SDS011;37186;51.394;5.454;2023-06-22T06:52:46;27.88;;;26.92;;
26820;SDS011;37186;51.394;5.454;2023-06-22T06:55:46;27.73;;;26.77;;
26820;SDS011;37186;51.394;5.454;2023-06-22T06:58:49;26.80;;;25.90;;
26820;SDS011;37186;51.394;5.454;2023-06-22T07:01:50;25.40;;;24.58;;
26820;SDS011;37186;51.394;5.454;2023-06-22T07:04:51;25.88;;;24.98;;
26820;SDS011;37186;51.394;5.454;2023-06-22T07:07:51;27.25;;;26.35;;
26820;SDS011;37186;51.394;5.454;2023-06-22T07:10:53;24.48;;;23.67;;
26820;SDS011;37186;51.394;5.454;2023-06-22T07:13:53;26.35;;;25.45;;
26820;SDS011;37186;51.394;5.454;2023-06-22T07:16:54;25.08;;;24.23;;
26820;SDS011;37186;51.394;5.454;2023-06-22T07:19:55;25.35;;;24.50;;
26820;SDS011;37186;51.394;5.454;2023-06-22T07:22:55;26.17;;;25.27;;
26820;SDS011;37186;51.394;5.454;2023-06-22T07:25:56;26.42;;;25.52;;
26820;SDS011;37186;51.394;5.454;2023-06-22T07:28:56;26.38;;;25.48;;
26820;SDS011;37186;51.394;5.454;2023-06-22T07:31:57;25.92;;;25.05;;
26820;SDS011;37186;51.394;5.454;2023-06-22T07:34:58;23.10;;;22.35;;
26820;SDS011;37186;51.394;5.454;2023-06-22T07:37:58;21.95;;;21.23;;
26820;SDS011;37186;51.394;5.454;2023-06-22T07:40:59;20.77;;;20.10;;
26820;SDS011;37186;51.394;5.454;2023-06-22T07:44:00;19.73;;;19.13;;
26820;SDS011;37186;51.394;5.454;2023-06-22T07:47:00;17.98;;;17.38;;
26820;SDS011;37186;51.394;5.454;2023-06-22T07:50:01;16.10;;;15.60;;
26820;SDS011;37186;51.394;5.454;2023-06-22T07:53:03;15.77;;;15.27;;
26820;SDS011;37186;51.394;5.454;2023-06-22T07:56:03;16.88;;;16.35;;
26820;SDS011;37186;51.394;5.454;2023-06-22T07:59:07;17.77;;;17.23;;
26820;SDS011;37186;51.394;5.454;2023-06-22T08:02:07;17.35;;;16.80;;
26820;SDS011;37186;51.394;5.454;2023-06-22T08:05:09;16.42;;;15.93;;
26820;SDS011;37186;51.394;5.454;2023-06-22T08:08:10;17.33;;;16.77;;
26820;SDS011;37186;51.394;5.454;2023-06-22T08:11:11;15.63;;;15.13;;
26820;SDS011;37186;51.394;5.454;2023-06-22T08:14:12;17.42;;;16.88;;
26820;SDS011;37186;51.394;5.454;2023-06-22T08:17:12;17.58;;;17.02;;
26820;SDS011;37186;51.394;5.454;2023-06-22T08:20:13;17.30;;;16.77;;
26820;SDS011;37186;51.394;5.454;2023-06-22T08:23:14;17.15;;;16.65;;
26820;SDS011;37186;51.394;5.454;2023-06-22T08:26:15;15.30;;;14.80;;
26820;SDS011;37186;51.394;5.454;2023-06-22T08:29:15;16.10;;;15.60;;
26820;SDS011;37186;51.394;5.454;2023-06-22T08:32:16;18.55;;;17.95;;
26820;SDS011;37186;51.394;5.454;2023-06-22T08:35:16;18.60;;;18.00;;
26820;SDS011;37186;51.394;5.454;2023-06-22T08:38:17;18.52;;;17.92;;
26820;SDS011;37186;51.394;5.454;2023-06-22T08:41:18;17.27;;;16.75;;
26820;SDS011;37186;51.394;5.454;2023-06-22T08:44:19;19.95;;;19.33;;
26820;SDS011;37186;51.394;5.454;2023-06-22T08:47:19;18.77;;;18.17;;
26820;SDS011;37186;51.394;5.454;2023-06-22T08:50:21;18.77;;;18.17;;
26820;SDS011;37186;51.394;5.454;2023-06-22T08:53:21;19.95;;;19.33;;
26820;SDS011;37186;51.394;5.454;2023-06-22T08:56:22;17.67;;;17.10;;
26820;SDS011;37186;51.394;5.454;2023-06-22T08:59:23;18.50;;;17.90;;
26820;SDS011;37186;51.394;5.454;2023-06-22T09:02:26;17.25;;;16.73;;
26820;SDS011;37186;51.394;5.454;2023-06-22T09:05:30;17.20;;;16.67;;
26820;SDS011;37186;51.394;5.454;2023-06-22T09:08:31;18.10;;;17.50;;
26820;SDS011;37186;51.394;5.454;2023-06-22T09:11:32;16.90;;;16.38;;
26820;SDS011;37186;51.394;5.454;2023-06-22T09:14:32;17.40;;;16.85;;
26820;SDS011;37186;51.394;5.454;2023-06-22T09:17:33;17.00;;;16.50;;
26820;SDS011;37186;51.394;5.454;2023-06-22T09:20:34;16.35;;;15.85;;
26820;SDS011;37186;51.394;5.454;2023-06-22T09:23:35;17.27;;;16.73;;
26820;SDS011;37186;51.394;5.454;2023-06-22T09:26:35;16.60;;;16.10;;
26820;SDS011;37186;51.394;5.454;2023-06-22T09:29:36;16.50;;;16.00;;
26820;SDS011;37186;51.394;5.454;2023-06-22T09:32:36;17.50;;;16.92;;
26820;SDS011;37186;51.394;5.454;2023-06-22T09:35:37;16.83;;;16.33;;
26820;SDS011;37186;51.394;5.454;2023-06-22T09:38:38;16.88;;;16.35;;
26820;SDS011;37186;51.394;5.454;2023-06-22T09:41:38;17.83;;;17.25;;
26820;SDS011;37186;51.394;5.454;2023-06-22T09:44:39;18.85;;;18.25;;
26820;SDS011;37186;51.394;5.454;2023-06-22T09:47:39;16.52;;;16.02;;
26820;SDS011;37186;51.394;5.454;2023-06-22T09:50:40;17.65;;;17.10;;
26820;SDS011;37186;51.394;5.454;2023-06-22T09:53:41;18.42;;;17.83;;
26820;SDS011;37186;51.394;5.454;2023-06-22T09:56:41;17.90;;;17.30;;
26820;SDS011;37186;51.394;5.454;2023-06-22T09:59:42;17.50;;;16.95;;
26820;SDS011;37186;51.394;5.454;2023-06-22T10:02:42;17.48;;;16.92;;
26820;SDS011;37186;51.394;5.454;2023-06-22T10:05:43;17.60;;;17.02;;
26820;SDS011;37186;51.394;5.454;2023-06-22T10:08:44;16.13;;;15.63;;
26820;SDS011;37186;51.394;5.454;2023-06-22T10:11:44;18.15;;;17.55;;
26820;SDS011;37186;51.394;5.454;2023-06-22T10:14:45;16.48;;;15.98;;
26820;SDS011;37186;51.394;5.454;2023-06-22T10:17:45;15.57;;;15.07;;
26820;SDS011;37186;51.394;5.454;2023-06-22T10:20:50;17.02;;;16.52;;
26820;SDS011;37186;51.394;5.454;2023-06-22T10:23:51;16.67;;;16.17;;
26820;SDS011;37186;51.394;5.454;2023-06-22T10:26:52;16.98;;;16.48;;
26820;SDS011;37186;51.394;5.454;2023-06-22T10:29:53;16.13;;;15.63;;
26820;SDS011;37186;51.394;5.454;2023-06-22T10:32:53;17.75;;;17.17;;
26820;SDS011;37186;51.394;5.454;2023-06-22T10:35:54;16.05;;;15.55;;
26820;SDS011;37186;51.394;5.454;2023-06-22T10:38:55;16.30;;;15.80;;
26820;SDS011;37186;51.394;5.454;2023-06-22T10:41:55;16.50;;;16.00;;
26820;SDS011;37186;51.394;5.454;2023-06-22T10:44:56;17.15;;;16.63;;
26820;SDS011;37186;51.394;5.454;2023-06-22T10:47:57;16.77;;;16.25;;
26820;SDS011;37186;51.394;5.454;2023-06-22T10:50:57;16.58;;;16.08;;
26820;SDS011;37186;51.394;5.454;2023-06-22T10:53:58;16.23;;;15.73;;
26820;SDS011;37186;51.394;5.454;2023-06-22T10:56:58;15.57;;;15.07;;
26820;SDS011;37186;51.394;5.454;2023-06-22T10:59:59;14.75;;;14.27;;
26820;SDS011;37186;51.394;5.454;2023-06-22T11:03:00;14.57;;;14.15;;
26820;SDS011;37186;51.394;5.454;2023-06-22T11:06:00;15.13;;;14.65;;
26820;SDS011;37186;51.394;5.454;2023-06-22T11:09:01;13.40;;;13.00;;
26820;SDS011;37186;51.394;5.454;2023-06-22T11:12:02;13.05;;;12.65;;
26820;SDS011;37186;51.394;5.454;2023-06-22T11:15:03;15.55;;;15.05;;
26820;SDS011;37186;51.394;5.454;2023-06-22T11:18:04;13.77;;;13.38;;
26820;SDS011;37186;51.394;5.454;2023-06-22T11:21:05;15.43;;;14.93;;
26820;SDS011;37186;51.394;5.454;2023-06-22T11:24:05;16.95;;;16.45;;
26820;SDS011;37186;51.394;5.454;2023-06-22T11:27:06;18.77;;;18.17;;
26820;SDS011;37186;51.394;5.454;2023-06-22T11:30:07;20.55;;;19.85;;
26820;SDS011;37186;51.394;5.454;2023-06-22T11:33:08;19.73;;;19.08;;
26820;SDS011;37186;51.394;5.454;2023-06-22T11:36:08;22.60;;;21.83;;
26820;SDS011;37186;51.394;5.454;2023-06-22T11:39:10;24.02;;;23.23;;
26820;SDS011;37186;51.394;5.454;2023-06-22T11:42:14;26.98;;;26.08;;
26820;SDS011;37186;51.394;5.454;2023-06-22T11:45:14;28.15;;;27.20;;
26820;SDS011;37186;51.394;5.454;2023-06-22T11:48:15;27.15;;;26.25;;
26820;SDS011;37186;51.394;5.454;2023-06-22T11:51:15;29.25;;;28.25;;
26820;SDS011;37186;51.394;5.454;2023-06-22T11:54:16;27.60;;;26.70;;
26820;SDS011;37186;51.394;5.454;2023-06-22T11:57:17;28.50;;;27.50;;
26820;SDS011;37186;51.394;5.454;2023-06-22T12:00:17;28.55;;;27.55;;
26820;SDS011;37186;51.394;5.454;2023-06-22T12:03:19;31.15;;;30.08;;
26820;SDS011;37186;51.394;5.454;2023-06-22T12:06:21;37.03;;;35.72;;
26820;SDS011;37186;51.394;5.454;2023-06-22T12:09:21;39.17;;;37.78;;
26820;SDS011;37186;51.394;5.454;2023-06-22T12:12:22;34.17;;;32.97;;
26820;SDS011;37186;51.394;5.454;2023-06-22T12:15:23;27.27;;;26.38;;
26820;SDS011;37186;51.394;5.454;2023-06-22T12:18:23;31.92;;;30.83;;
26820;SDS011;37186;51.394;5.454;2023-06-22T12:21:24;30.00;;;29.00;;
26820;SDS011;37186;51.394;5.454;2023-06-22T12:24:25;29.92;;;28.92;;
26820;SDS011;37186;51.394;5.454;2023-06-22T12:27:25;29.73;;;28.73;;
26820;SDS011;37186;51.394;5.454;2023-06-22T12:30:26;30.63;;;29.60;;
26820;SDS011;37186;51.394;5.454;2023-06-22T12:33:26;33.30;;;32.13;;
26820;SDS011;37186;51.394;5.454;2023-06-22T12:36:27;30.63;;;29.52;;
26820;SDS011;37186;51.394;5.454;2023-06-22T12:39:27;31.77;;;30.67;;
26820;SDS011;37186;51.394;5.454;2023-06-22T12:42:28;33.50;;;32.33;;
26820;SDS011;37186;51.394;5.454;2023-06-22T12:45:29;33.75;;;32.55;;
26820;SDS011;37186;51.394;5.454;2023-06-22T12:48:33;35.17;;;33.97;;
26820;SDS011;37186;51.394;5.454;2023-06-22T12:51:39;35.88;;;34.63;;
26820;SDS011;37186;51.394;5.454;2023-06-22T12:54:40;34.40;;;33.20;;
26820;SDS011;37186;51.394;5.454;2023-06-22T12:57:41;35.20;;;34.00;;
26820;SDS011;37186;51.394;5.454;2023-06-22T13:00:42;32.28;;;31.17;;
26820;SDS011;37186;51.394;5.454;2023-06-22T13:03:42;34.42;;;33.22;;
26820;SDS011;37186;51.394;5.454;2023-06-22T13:06:43;32.28;;;31.17;;
26820;SDS011;37186;51.394;5.454;2023-06-22T13:09:47;33.58;;;32.42;;
26820;SDS011;37186;51.394;5.454;2023-06-22T13:12:51;37.55;;;36.25;;
26820;SDS011;37186;51.394;5.454;2023-06-22T13:15:54;34.20;;;33.05;;
26820;SDS011;37186;51.394;5.454;2023-06-22T13:18:55;37.90;;;36.60;;
26820;SDS011;37186;51.394;5.454;2023-06-22T13:21:55;33.72;;;32.58;;
26820;SDS011;37186;51.394;5.454;2023-06-22T13:24:56;32.78;;;31.67;;
26820;SDS011;37186;51.394;5.454;2023-06-22T13:27:57;26.70;;;25.80;;
26820;SDS011;37186;51.394;5.454;2023-06-22T13:30:58;22.85;;;22.13;;
26820;SDS011;37186;51.394;5.454;2023-06-22T13:33:58;21.38;;;20.67;;
26820;SDS011;37186;51.394;5.454;2023-06-22T13:36:59;21.33;;;20.63;;
26820;SDS011;37186;51.394;5.454;2023-06-22T13:39:59;20.15;;;19.50;;
26820;SDS011;37186;51.394;5.454;2023-06-22T13:43:02;19.45;;;18.85;;
26820;SDS011;37186;51.394;5.454;2023-06-22T13:46:03;22.85;;;22.08;;
26820;SDS011;37186;51.394;5.454;2023-06-22T13:49:04;23.98;;;23.17;;
26820;SDS011;37186;51.394;5.454;2023-06-22T13:52:04;19.83;;;19.17;;
26820;SDS011;37186;51.394;5.454;2023-06-22T13:55:10;21.83;;;21.13;;
26820;SDS011;37186;51.394;5.454;2023-06-22T13:58:10;21.83;;;21.13;;
26820;SDS011;37186;51.394;5.454;2023-06-22T14:01:11;21.40;;;20.70;;
26820;SDS011;37186;51.394;5.454;2023-06-22T14:04:12;19.45;;;18.85;;
26820;SDS011;37186;51.394;5.454;2023-06-22T14:07:12;23.55;;;22.75;;
26820;SDS011;37186;51.394;5.454;2023-06-22T14:10:13;32.42;;;31.33;;
26820;SDS011;37186;51.394;5.454;2023-06-22T14:13:13;32.45;;;31.35;;
26820;SDS011;37186;51.394;5.454;2023-06-22T14:16:14;32.38;;;31.27;;
26820;SDS011;37186;51.394;5.454;2023-06-22T14:19:16;34.85;;;33.65;;
26820;SDS011;37186;51.394;5.454;2023-06-22T14:22:17;34.45;;;33.25;;
26820;SDS011;37186;51.394;5.454;2023-06-22T14:25:18;32.17;;;31.08;;
26820;SDS011;37186;51.394;5.454;2023-06-22T14:28:19;32.88;;;31.75;;
26820;SDS011;37186;51.394;5.454;2023-06-22T14:31:19;34.88;;;33.67;;
26820;SDS011;37186;51.394;5.454;2023-06-22T14:34:20;33.53;;;32.40;;
26820;SDS011;37186;51.394;5.454;2023-06-22T14:37:20;34.83;;;33.63;;
26820;SDS011;37186;51.394;5.454;2023-06-22T14:40:21;30.35;;;29.35;;
26820;SDS011;37186;51.394;5.454;2023-06-22T14:43:22;24.50;;;23.70;;
26820;SDS011;37186;51.394;5.454;2023-06-22T14:46:22;25.00;;;24.20;;
26820;SDS011;37186;51.394;5.454;2023-06-22T14:49:23;23.27;;;22.50;;
26820;SDS011;37186;51.394;5.454;2023-06-22T14:52:24;26.05;;;25.15;;
26820;SDS011;37186;51.394;5.454;2023-06-22T14:55:25;24.67;;;23.88;;
26820;SDS011;37186;51.394;5.454;2023-06-22T14:58:25;22.23;;;21.52;;
26820;SDS011;37186;51.394;5.454;2023-06-22T15:01:26;21.50;;;20.80;;
26820;SDS011;37186;51.394;5.454;2023-06-22T15:04:26;23.25;;;22.48;;
26820;SDS011;37186;51.394;5.454;2023-06-22T15:07:31;26.55;;;25.65;;
26820;SDS011;37186;51.394;5.454;2023-06-22T15:10:32;29.77;;;28.75;;
26820;SDS011;37186;51.394;5.454;2023-06-22T15:13:32;27.25;;;26.35;;
26820;SDS011;37186;51.394;5.454;2023-06-22T15:16:34;28.73;;;27.73;;
26820;SDS011;37186;51.394;5.454;2023-06-22T15:19:37;31.02;;;29.92;;
26820;SDS011;37186;51.394;5.454;2023-06-22T15:22:38;29.90;;;28.85;;
26820;SDS011;37186;51.394;5.454;2023-06-22T15:25:38;25.92;;;25.02;;
26820;SDS011;37186;51.394;5.454;2023-06-22T15:28:39;27.70;;;26.75;;
26820;SDS011;37186;51.394;5.454;2023-06-22T15:31:40;28.70;;;27.70;;
26820;SDS011;37186;51.394;5.454;2023-06-22T15:34:40;24.67;;;23.85;;
26820;SDS011;37186;51.394;5.454;2023-06-22T15:37:41;30.92;;;29.83;;
26820;SDS011;37186;51.394;5.454;2023-06-22T15:40:42;38.75;;;37.35;;
26820;SDS011;37186;51.394;5.454;2023-06-22T15:43:42;42.85;;;41.28;;
26820;SDS011;37186;51.394;5.454;2023-06-22T15:46:43;42.92;;;41.38;;
26820;SDS011;37186;51.394;5.454;2023-06-22T15:49:43;49.20;;;47.40;;
26820;SDS011;37186;51.394;5.454;2023-06-22T15:52:44;48.08;;;46.30;;
26820;SDS011;37186;51.394;5.454;2023-06-22T15:55:47;45.17;;;43.55;;
26820;SDS011;37186;51.394;5.454;2023-06-22T15:58:48;47.97;;;46.22;;
26820;SDS011;37186;51.394;5.454;2023-06-22T16:01:48;43.88;;;42.30;;
26820;SDS011;37186;51.394;5.454;2023-06-22T16:04:49;41.97;;;40.50;;
26820;SDS011;37186;51.394;5.454;2023-06-22T16:07:50;43.58;;;42.03;;
26820;SDS011;37186;51.394;5.454;2023-06-22T16:10:51;45.58;;;43.95;;
26820;SDS011;37186;51.394;5.454;2023-06-22T16:13:52;47.50;;;45.80;;
26820;SDS011;37186;51.394;5.454;2023-06-22T16:16:52;42.80;;;41.30;;
26820;SDS011;37186;51.394;5.454;2023-06-22T16:19:53;46.60;;;44.95;;
26820;SDS011;37186;51.394;5.454;2023-06-22T16:22:54;41.75;;;40.30;;
26820;SDS011;37186;51.394;5.454;2023-06-22T16:25:55;46.25;;;44.63;;
26820;SDS011;37186;51.394;5.454;2023-06-22T16:28:55;41.55;;;40.08;;
26820;SDS011;37186;51.394;5.454;2023-06-22T16:31:56;45.75;;;44.15;;
26820;SDS011;37186;51.394;5.454;2023-06-22T16:34:56;41.38;;;39.95;;
26820;SDS011;37186;51.394;5.454;2023-06-22T16:37:57;46.45;;;44.85;;
26820;SDS011;37186;51.394;5.454;2023-06-22T16:40:58;46.20;;;44.55;;
26820;SDS011;37186;51.394;5.454;2023-06-22T16:43:59;49.30;;;47.53;;
26820;SDS011;37186;51.394;5.454;2023-06-22T16:47:04;49.75;;;47.97;;
26820;SDS011;37186;51.394;5.454;2023-06-22T16:50:06;50.20;;;48.40;;
26820;SDS011;37186;51.394;5.454;2023-06-22T16:53:06;40.72;;;39.30;;
26820;SDS011;37186;51.394;5.454;2023-06-22T16:56:07;41.47;;;40.00;;
26820;SDS011;37186;51.394;5.454;2023-06-22T16:59:08;38.38;;;37.08;;
26820;SDS011;37186;51.394;5.454;2023-06-22T17:02:12;35.08;;;33.88;;
26820;SDS011;37186;51.394;5.454;2023-06-22T17:05:18;37.83;;;36.53;;
26820;SDS011;37186;51.394;5.454;2023-06-22T17:08:18;30.38;;;29.38;;
26820;SDS011;37186;51.394;5.454;2023-06-22T17:11:21;36.65;;;35.40;;
26820;SDS011;37186;51.394;5.454;2023-06-22T17:14:23;36.70;;;35.40;;
26820;SDS011;37186;51.394;5.454;2023-06-22T17:17:23;35.33;;;34.13;;
26820;SDS011;37186;51.394;5.454;2023-06-22T17:20:26;36.10;;;34.85;;
26820;SDS011;37186;51.394;5.454;2023-06-22T17:23:27;34.53;;;33.35;;
26820;SDS011;37186;51.394;5.454;2023-06-22T17:26:30;35.08;;;33.88;;
26820;SDS011;37186;51.394;5.454;2023-06-22T17:29:31;35.72;;;34.50;;
26820;SDS011;37186;51.394;5.454;2023-06-22T17:32:35;29.17;;;28.17;;
26820;SDS011;37186;51.394;5.454;2023-06-22T17:35:48;32.35;;;31.25;;
26820;SDS011;37186;51.394;5.454;2023-06-22T17:38:51;26.73;;;25.83;;
26820;SDS011;37186;51.394;5.454;2023-06-22T17:41:52;21.20;;;20.52;;
26820;SDS011;37186;51.394;5.454;2023-06-22T17:44:58;19.02;;;18.42;;
26820;SDS011;37186;51.394;5.454;2023-06-22T17:48:00;19.35;;;18.75;;
26820;SDS011;37186;51.394;5.454;2023-06-22T17:51:01;16.58;;;16.08;;
26820;SDS011;37186;51.394;5.454;2023-06-22T17:54:02;20.80;;;20.10;;